sensor_id;sensor_type;location;lat;lon;timestamp;pressure;altitude;pressure_sealevel;temperature;humidity
70902;BME280;58548;47.210;8.618;2023-04-28T00:00:50;94015.44;;;21.43;34.86
70902;BME280;58548;47.210;8.618;2023-04-28T00:03:19;94009.59;;;21.41;34.86
70902;BME280;58548;47.210;8.618;2023-04-28T00:05:47;94016.50;;;21.42;35.11
70902;BME280;58548;47.210;8.618;2023-04-28T00:08:15;94021.81;;;21.42;34.74
70902;BME280;58548;47.210;8.618;2023-04-28T00:10:41;94015.44;;;21.43;35.28
70902;BME280;58548;47.210;8.618;2023-04-28T00:13:07;93897.97;;;20.67;35.25
70902;BME280;58548;47.210;8.618;2023-04-28T00:15:33;93925.41;;;20.83;34.84
70902;BME280;58548;47.210;8.618;2023-04-28T00:17:59;94018.09;;;21.43;35.15
70902;BME280;58548;47.210;8.618;2023-04-28T00:20:27;94014.91;;;21.41;35.04
70902;BME280;58548;47.210;8.618;2023-04-28T00:22:53;93999.75;;;21.36;34.97
70902;BME280;58548;47.210;8.618;2023-04-28T00:25:19;94036.19;;;21.46;35.29
70902;BME280;58548;47.210;8.618;2023-04-28T00:27:47;94027.66;;;21.44;35.18
70902;BME280;58548;47.210;8.618;2023-04-28T00:30:13;93916.91;;;20.81;34.98
70902;BME280;58548;47.210;8.618;2023-04-28T00:32:41;93975.53;;;21.22;35.27
70902;BME280;58548;47.210;8.618;2023-04-28T00:35:09;93913.22;;;20.82;35.26
70902;BME280;58548;47.210;8.618;2023-04-28T00:37:38;94013.88;;;21.47;35.52
70902;BME280;58548;47.210;8.618;2023-04-28T00:40:04;93893.75;;;20.71;35.17
70902;BME280;58548;47.210;8.618;2023-04-28T00:42:33;94013.88;;;21.47;35.17
70902;BME280;58548;47.210;8.618;2023-04-28T00:45:02;93901.19;;;20.74;35.29
70902;BME280;58548;47.210;8.618;2023-04-28T00:47:32;93990.47;;;21.34;35.23
70902;BME280;58548;47.210;8.618;2023-04-28T00:50:06;94000.59;;;21.47;35.16
70902;BME280;58548;47.210;8.618;2023-04-28T00:52:35;93963.84;;;21.18;35.28
70902;BME280;58548;47.210;8.618;2023-04-28T00:55:06;94003.53;;;21.46;35.16
70902;BME280;58548;47.210;8.618;2023-04-28T00:57:34;93977.94;;;21.29;35.18
70902;BME280;58548;47.210;8.618;2023-04-28T01:00:01;93995.50;;;21.35;34.89
70902;BME280;58548;47.210;8.618;2023-04-28T01:02:29;93991.50;;;21.33;35.33
70902;BME280;58548;47.210;8.618;2023-04-28T01:04:57;93920.66;;;20.85;34.80
70902;BME280;58548;47.210;8.618;2023-04-28T01:07:23;93938.75;;;20.99;34.74
70902;BME280;58548;47.210;8.618;2023-04-28T01:09:54;94005.09;;;21.42;34.97
70902;BME280;58548;47.210;8.618;2023-04-28T01:12:20;94001.66;;;21.46;34.79
70902;BME280;58548;47.210;8.618;2023-04-28T01:14:51;94001.41;;;21.48;34.33
70902;BME280;58548;47.210;8.618;2023-04-28T01:17:17;93897.50;;;20.75;34.33
70902;BME280;58548;47.210;8.618;2023-04-28T01:19:47;93908.44;;;20.84;33.91
70902;BME280;58548;47.210;8.618;2023-04-28T01:22:13;93836.03;;;20.41;34.71
70902;BME280;58548;47.210;8.618;2023-04-28T01:24:41;94029.88;;;21.58;35.05
70902;BME280;58548;47.210;8.618;2023-04-28T01:27:07;93948.63;;;21.08;35.08
70902;BME280;58548;47.210;8.618;2023-04-28T01:29:33;94032.00;;;21.56;35.39
70902;BME280;58548;47.210;8.618;2023-04-28T01:31:59;93854.09;;;20.44;35.29
70902;BME280;58548;47.210;8.618;2023-04-28T01:34:25;94002.16;;;21.38;35.99
70902;BME280;58548;47.210;8.618;2023-04-28T01:36:56;94033.81;;;21.55;35.64
70902;BME280;58548;47.210;8.618;2023-04-28T01:39:24;93936.66;;;21.01;36.04
70902;BME280;58548;47.210;8.618;2023-04-28T01:41:52;93981.47;;;21.45;35.67
70902;BME280;58548;47.210;8.618;2023-04-28T01:44:20;93901.59;;;20.99;35.97
70902;BME280;58548;47.210;8.618;2023-04-28T01:46:46;93987.38;;;21.58;36.11
70902;BME280;58548;47.210;8.618;2023-04-28T01:49:12;94006.50;;;21.60;35.96
70902;BME280;58548;47.210;8.618;2023-04-28T01:51:40;93997.94;;;21.47;35.77
70902;BME280;58548;47.210;8.618;2023-04-28T01:54:07;93955.88;;;21.18;36.22
70902;BME280;58548;47.210;8.618;2023-04-28T01:56:35;93919.13;;;21.00;35.59
70902;BME280;58548;47.210;8.618;2023-04-28T01:59:08;94010.50;;;21.62;35.73
70902;BME280;58548;47.210;8.618;2023-04-28T02:01:38;94003.88;;;21.65;35.23
70902;BME280;58548;47.210;8.618;2023-04-28T02:04:04;93995.34;;;21.63;35.86
70902;BME280;58548;47.210;8.618;2023-04-28T02:06:30;93988.44;;;21.62;35.58
70902;BME280;58548;47.210;8.618;2023-04-28T02:08:57;93984.72;;;21.63;36.10
70902;BME280;58548;47.210;8.618;2023-04-28T02:11:23;93941.84;;;21.33;35.86
70902;BME280;58548;47.210;8.618;2023-04-28T02:13:48;93884.63;;;20.94;36.32
70902;BME280;58548;47.210;8.618;2023-04-28T02:16:15;93904.28;;;21.04;36.47
70902;BME280;58548;47.210;8.618;2023-04-28T02:18:43;93962.84;;;21.45;36.81
70902;BME280;58548;47.210;8.618;2023-04-28T02:21:12;93880.91;;;20.96;36.15
70902;BME280;58548;47.210;8.618;2023-04-28T02:23:41;93985.28;;;21.65;36.46
70902;BME280;58548;47.210;8.618;2023-04-28T02:26:09;93984.22;;;21.66;36.69
70902;BME280;58548;47.210;8.618;2023-04-28T02:28:39;93885.41;;;20.95;36.68
70902;BME280;58548;47.210;8.618;2023-04-28T02:31:10;93952.22;;;21.40;37.24
70902;BME280;58548;47.210;8.618;2023-04-28T02:33:39;93984.19;;;21.61;37.04
70902;BME280;58548;47.210;8.618;2023-04-28T02:36:08;93880.13;;;21.00;37.27
70902;BME280;58548;47.210;8.618;2023-04-28T02:38:36;93983.69;;;21.69;37.29
70902;BME280;58548;47.210;8.618;2023-04-28T02:41:04;93890.53;;;21.12;37.21
70902;BME280;58548;47.210;8.618;2023-04-28T02:43:31;93972.47;;;21.57;37.24
70902;BME280;58548;47.210;8.618;2023-04-28T02:46:02;93901.16;;;21.12;36.91
70902;BME280;58548;47.210;8.618;2023-04-28T02:48:33;93908.06;;;21.13;37.11
70902;BME280;58548;47.210;8.618;2023-04-28T02:51:01;93895.25;;;20.94;37.00
70902;BME280;58548;47.210;8.618;2023-04-28T02:53:31;93974.53;;;21.44;37.11
70902;BME280;58548;47.210;8.618;2023-04-28T02:55:57;93919.44;;;21.03;37.40
70902;BME280;58548;47.210;8.618;2023-04-28T02:58:26;94001.66;;;21.46;37.31
70902;BME280;58548;47.210;8.618;2023-04-28T03:00:54;93929.78;;;21.05;36.79
70902;BME280;58548;47.210;8.618;2023-04-28T03:03:20;94016.50;;;21.42;37.28
70902;BME280;58548;47.210;8.618;2023-04-28T03:05:46;94022.59;;;21.37;37.79
70902;BME280;58548;47.210;8.618;2023-04-28T03:08:14;93919.34;;;20.88;37.47
70902;BME280;58548;47.210;8.618;2023-04-28T03:10:40;94007.53;;;21.53;37.19
70902;BME280;58548;47.210;8.618;2023-04-28T03:13:10;93959.03;;;21.15;37.45
70902;BME280;58548;47.210;8.618;2023-04-28T03:15:37;94019.25;;;21.58;37.53
70902;BME280;58548;47.210;8.618;2023-04-28T03:18:03;94023.75;;;21.57;37.75
70902;BME280;58548;47.210;8.618;2023-04-28T03:20:28;93935.59;;;21.02;38.48
70902;BME280;58548;47.210;8.618;2023-04-28T03:22:59;93961.66;;;21.10;38.53
70902;BME280;58548;47.210;8.618;2023-04-28T03:25:29;93962.75;;;21.14;38.71
70902;BME280;58548;47.210;8.618;2023-04-28T03:27:54;93992.28;;;21.33;38.54
70902;BME280;58548;47.210;8.618;2023-04-28T03:30:23;93946.25;;;21.07;38.75
70902;BME280;58548;47.210;8.618;2023-04-28T03:32:48;93917.53;;;20.93;38.75
70902;BME280;58548;47.210;8.618;2023-04-28T03:35:16;94010.72;;;21.50;38.65
70902;BME280;58548;47.210;8.618;2023-04-28T03:37:45;93971.28;;;21.27;38.63
70902;BME280;58548;47.210;8.618;2023-04-28T03:40:11;93994.75;;;21.45;38.41
70902;BME280;58548;47.210;8.618;2023-04-28T03:42:39;94014.94;;;21.46;38.42
70902;BME280;58548;47.210;8.618;2023-04-28T03:45:08;93889.81;;;20.74;38.78
70902;BME280;58548;47.210;8.618;2023-04-28T03:47:34;93891.97;;;20.82;39.25
70902;BME280;58548;47.210;8.618;2023-04-28T03:50:01;93928.72;;;21.06;38.98
70902;BME280;58548;47.210;8.618;2023-04-28T03:52:27;93995.28;;;21.47;39.02
70902;BME280;58548;47.210;8.618;2023-04-28T03:54:53;93906.06;;;20.88;39.00
70902;BME280;58548;47.210;8.618;2023-04-28T03:57:18;94004.31;;;21.46;38.92
70902;BME280;58548;47.210;8.618;2023-04-28T03:59:47;93902.09;;;20.85;38.80
70902;BME280;58548;47.210;8.618;2023-04-28T04:02:15;93997.16;;;21.47;38.90
70902;BME280;58548;47.210;8.618;2023-04-28T04:04:43;93911.38;;;20.88;38.48
70902;BME280;58548;47.210;8.618;2023-04-28T04:07:10;93995.78;;;21.44;38.84
70902;BME280;58548;47.210;8.618;2023-04-28T04:09:38;93981.13;;;21.26;38.98
70902;BME280;58548;47.210;8.618;2023-04-28T04:12:04;94008.03;;;21.45;38.92
70902;BME280;58548;47.210;8.618;2023-04-28T04:14:32;94005.63;;;21.44;39.18
70902;BME280;58548;47.210;8.618;2023-04-28T04:17:00;94002.72;;;21.45;39.28
70902;BME280;58548;47.210;8.618;2023-04-28T04:19:26;93893.25;;;20.74;39.23
70902;BME280;58548;47.210;8.618;2023-04-28T04:21:52;94014.66;;;21.43;38.75
70902;BME280;58548;47.210;8.618;2023-04-28T04:24:18;94016.50;;;21.42;38.91
70902;BME280;58548;47.210;8.618;2023-04-28T04:26:47;93929.69;;;20.84;39.09
70902;BME280;58548;47.210;8.618;2023-04-28T04:29:12;93987.19;;;21.16;39.21
70902;BME280;58548;47.210;8.618;2023-04-28T04:31:38;93929.94;;;20.83;39.41
70902;BME280;58548;47.210;8.618;2023-04-28T04:34:04;94011.19;;;21.42;39.57
70902;BME280;58548;47.210;8.618;2023-04-28T04:36:30;94015.22;;;21.45;38.40
70902;BME280;58548;47.210;8.618;2023-04-28T04:38:57;93929.13;;;20.82;38.97
70902;BME280;58548;47.210;8.618;2023-04-28T04:41:25;94017.06;;;21.39;39.07
70902;BME280;58548;47.210;8.618;2023-04-28T04:43:55;94013.31;;;21.35;39.31
70902;BME280;58548;47.210;8.618;2023-04-28T04:46:22;93915.78;;;20.72;39.32
70902;BME280;58548;47.210;8.618;2023-04-28T04:48:48;93931.81;;;20.87;39.65
70902;BME280;58548;47.210;8.618;2023-04-28T04:51:14;94021.00;;;21.36;39.55
70902;BME280;58548;47.210;8.618;2023-04-28T04:53:42;93923.75;;;20.72;39.65
70902;BME280;58548;47.210;8.618;2023-04-28T04:56:08;93903.28;;;20.62;39.12
70902;BME280;58548;47.210;8.618;2023-04-28T04:58:34;94019.66;;;21.34;39.27
70902;BME280;58548;47.210;8.618;2023-04-28T05:01:00;94011.66;;;21.29;39.21
70902;BME280;58548;47.210;8.618;2023-04-28T05:03:27;93931.78;;;20.82;39.31
70902;BME280;58548;47.210;8.618;2023-04-28T05:05:56;93917.09;;;20.69;39.26
70902;BME280;58548;47.210;8.618;2023-04-28T05:08:24;93974.97;;;21.15;39.43
70902;BME280;58548;47.210;8.618;2023-04-28T05:10:52;93997.34;;;21.30;39.26
70902;BME280;58548;47.210;8.618;2023-04-28T05:13:20;94009.06;;;21.34;39.25
70902;BME280;58548;47.210;8.618;2023-04-28T05:15:46;93991.75;;;21.26;39.56
70902;BME280;58548;47.210;8.618;2023-04-28T05:18:12;93912.16;;;20.83;39.37
70902;BME280;58548;47.210;8.618;2023-04-28T05:20:40;93891.84;;;20.61;39.29
70902;BME280;58548;47.210;8.618;2023-04-28T05:23:06;94004.75;;;21.28;38.91
70902;BME280;58548;47.210;8.618;2023-04-28T05:25:33;94008.19;;;21.23;39.55
70902;BME280;58548;47.210;8.618;2023-04-28T05:27:59;94011.91;;;21.22;39.92
70902;BME280;58548;47.210;8.618;2023-04-28T05:30:32;94008.19;;;21.23;39.68
70902;BME280;58548;47.210;8.618;2023-04-28T05:32:57;93896.59;;;20.54;39.29
70902;BME280;58548;47.210;8.618;2023-04-28T05:35:24;93840.66;;;20.18;39.49
70902;BME280;58548;47.210;8.618;2023-04-28T05:37:50;94011.13;;;21.27;39.59
70902;BME280;58548;47.210;8.618;2023-04-28T05:40:18;93920.03;;;20.73;39.60
70902;BME280;58548;47.210;8.618;2023-04-28T05:42:44;93921.09;;;20.72;39.44
70902;BME280;58548;47.210;8.618;2023-04-28T05:45:10;94006.91;;;21.31;39.75
70902;BME280;58548;47.210;8.618;2023-04-28T05:47:36;93971.75;;;21.08;39.88
70902;BME280;58548;47.210;8.618;2023-04-28T05:50:02;94022.88;;;21.41;39.06
70902;BME280;58548;47.210;8.618;2023-04-28T05:52:28;93992.75;;;21.15;38.90
70902;BME280;58548;47.210;8.618;2023-04-28T05:54:57;94012.75;;;21.33;39.43
70902;BME280;58548;47.210;8.618;2023-04-28T05:57:23;94035.13;;;21.47;39.41
70902;BME280;58548;47.210;8.618;2023-04-28T05:59:49;93958.41;;;20.92;39.41
70902;BME280;58548;47.210;8.618;2023-04-28T06:02:17;94043.63;;;21.49;38.90
70902;BME280;58548;47.210;8.618;2023-04-28T06:04:45;94032.41;;;21.32;39.71
70902;BME280;58548;47.210;8.618;2023-04-28T06:07:11;94035.06;;;21.32;39.48
70902;BME280;58548;47.210;8.618;2023-04-28T06:09:37;94027.00;;;21.11;39.86
70902;BME280;58548;47.210;8.618;2023-04-28T06:12:05;94040.22;;;21.06;40.01
70902;BME280;58548;47.210;8.618;2023-04-28T06:14:33;94052.94;;;21.04;39.83
70902;BME280;58548;47.210;8.618;2023-04-28T06:17:00;94025.25;;;20.89;39.84
70902;BME280;58548;47.210;8.618;2023-04-28T06:19:26;94022.97;;;20.71;40.35
70902;BME280;58548;47.210;8.618;2023-04-28T06:21:55;93971.78;;;20.38;39.95
70902;BME280;58548;47.210;8.618;2023-04-28T06:24:20;94049.00;;;20.74;40.01
70902;BME280;58548;47.210;8.618;2023-04-28T06:26:46;94044.13;;;20.60;40.81
70902;BME280;58548;47.210;8.618;2023-04-28T06:29:17;93883.09;;;19.58;40.31
70902;BME280;58548;47.210;8.618;2023-04-28T06:31:45;93878.63;;;19.58;40.75
70902;BME280;58548;47.210;8.618;2023-04-28T06:34:10;94054.78;;;20.66;41.04
70902;BME280;58548;47.210;8.618;2023-04-28T06:36:36;93959.91;;;20.13;40.72
70902;BME280;58548;47.210;8.618;2023-04-28T06:39:02;94050.03;;;20.68;40.41
70902;BME280;58548;47.210;8.618;2023-04-28T06:41:28;94051.63;;;20.69;40.69
70902;BME280;58548;47.210;8.618;2023-04-28T06:43:54;94046.81;;;20.66;40.50
70902;BME280;58548;47.210;8.618;2023-04-28T06:46:20;93969.03;;;20.22;40.41
70902;BME280;58548;47.210;8.618;2023-04-28T06:48:49;94059.47;;;20.86;40.16
70902;BME280;58548;47.210;8.618;2023-04-28T06:51:20;93984.72;;;20.29;40.05
70902;BME280;58548;47.210;8.618;2023-04-28T06:53:45;94066.03;;;20.78;40.12
70902;BME280;58548;47.210;8.618;2023-04-28T06:56:13;94005.22;;;20.39;40.75
70902;BME280;58548;47.210;8.618;2023-04-28T06:58:41;94035.09;;;20.61;40.40
70902;BME280;58548;47.210;8.618;2023-04-28T07:01:09;94048.41;;;20.67;40.29
70902;BME280;58548;47.210;8.618;2023-04-28T07:03:35;94020.78;;;20.62;40.59
70902;BME280;58548;47.210;8.618;2023-04-28T07:06:01;94010.19;;;20.62;40.82
70902;BME280;58548;47.210;8.618;2023-04-28T07:08:30;94050.19;;;20.88;40.97
70902;BME280;58548;47.210;8.618;2023-04-28T07:10:58;93956.94;;;20.37;40.69
70902;BME280;58548;47.210;8.618;2023-04-28T07:13:24;94050.31;;;21.04;40.44
70902;BME280;58548;47.210;8.618;2023-04-28T07:15:52;93938.91;;;20.33;40.61
70902;BME280;58548;47.210;8.618;2023-04-28T07:18:20;94025.84;;;20.97;40.70
70902;BME280;58548;47.210;8.618;2023-04-28T07:20:46;94024.06;;;21.07;40.83
70902;BME280;58548;47.210;8.618;2023-04-28T07:23:15;94027.56;;;21.18;40.82
70902;BME280;58548;47.210;8.618;2023-04-28T07:25:42;94045.19;;;21.40;40.68
70902;BME280;58548;47.210;8.618;2023-04-28T07:28:10;93929.66;;;20.79;40.58
70902;BME280;58548;47.210;8.618;2023-04-28T07:30:37;93969.66;;;21.15;40.54
70902;BME280;58548;47.210;8.618;2023-04-28T07:33:04;94013.88;;;21.47;40.47
70902;BME280;58548;47.210;8.618;2023-04-28T07:35:33;94019.81;;;21.65;40.36
70902;BME280;58548;47.210;8.618;2023-04-28T07:38:01;93993.22;;;21.60;40.03
70902;BME280;58548;47.210;8.618;2023-04-28T07:40:27;94016.94;;;21.82;40.04
70902;BME280;58548;47.210;8.618;2023-04-28T07:42:53;93925.59;;;21.24;40.13
70902;BME280;58548;47.210;8.618;2023-04-28T07:45:19;94030.53;;;21.91;40.50
70902;BME280;58548;47.210;8.618;2023-04-28T07:47:45;94030.03;;;21.99;39.84
70902;BME280;58548;47.210;8.618;2023-04-28T07:50:11;94034.81;;;22.07;39.44
70902;BME280;58548;47.210;8.618;2023-04-28T07:52:37;94021.78;;;22.01;39.04
70902;BME280;58548;47.210;8.618;2023-04-28T07:55:05;94006.59;;;21.91;39.36
70902;BME280;58548;47.210;8.618;2023-04-28T07:57:33;94044.16;;;22.10;38.93
70902;BME280;58548;47.210;8.618;2023-04-28T07:59:59;94030.00;;;21.94;39.04
70902;BME280;58548;47.210;8.618;2023-04-28T08:02:25;93971.94;;;21.54;39.22
70902;BME280;58548;47.210;8.618;2023-04-28T08:04:52;94064.63;;;22.14;38.88
70902;BME280;58548;47.210;8.618;2023-04-28T08:07:18;93981.22;;;21.57;38.89
70902;BME280;58548;47.210;8.618;2023-04-28T08:09:43;94067.53;;;22.08;39.20
70902;BME280;58548;47.210;8.618;2023-04-28T08:12:15;94057.41;;;21.99;38.92
70902;BME280;58548;47.210;8.618;2023-04-28T08:14:43;94069.91;;;22.04;38.89
70902;BME280;58548;47.210;8.618;2023-04-28T08:17:10;93965.50;;;21.40;38.95
70902;BME280;58548;47.210;8.618;2023-04-28T08:19:41;94044.38;;;21.98;39.29
70902;BME280;58548;47.210;8.618;2023-04-28T08:22:09;93901.63;;;21.04;39.05
70902;BME280;58548;47.210;8.618;2023-04-28T08:24:35;94076.31;;;22.08;39.08
70902;BME280;58548;47.210;8.618;2023-04-28T08:27:03;93995.81;;;21.49;38.57
70902;BME280;58548;47.210;8.618;2023-04-28T08:29:30;94101.31;;;22.12;38.66
70902;BME280;58548;47.210;8.618;2023-04-28T08:31:59;94062.19;;;21.92;38.44
70902;BME280;58548;47.210;8.618;2023-04-28T08:34:29;94007.03;;;21.57;38.49
70902;BME280;58548;47.210;8.618;2023-04-28T08:36:57;94053.09;;;21.83;38.88
70902;BME280;58548;47.210;8.618;2023-04-28T08:39:24;94093.34;;;22.12;39.16
70902;BME280;58548;47.210;8.618;2023-04-28T08:41:52;94007.34;;;21.65;39.25
70902;BME280;58548;47.210;8.618;2023-04-28T08:44:20;94011.59;;;21.72;39.21
70902;BME280;58548;47.210;8.618;2023-04-28T08:46:48;94026.78;;;21.76;39.07
70902;BME280;58548;47.210;8.618;2023-04-28T08:49:17;94102.44;;;22.22;39.38
70902;BME280;58548;47.210;8.618;2023-04-28T08:51:56;94109.91;;;22.40;39.16
70902;BME280;58548;47.210;8.618;2023-04-28T08:54:29;94054.00;;;22.14;39.15
70902;BME280;58548;47.210;8.618;2023-04-28T08:56:59;94109.16;;;22.50;38.99
70902;BME280;58548;47.210;8.618;2023-04-28T08:59:26;94040.69;;;22.09;38.72
70902;BME280;58548;47.210;8.618;2023-04-28T09:01:52;94099.31;;;22.51;38.79
70902;BME280;58548;47.210;8.618;2023-04-28T09:04:21;94032.69;;;22.04;38.83
70902;BME280;58548;47.210;8.618;2023-04-28T09:06:47;94092.34;;;22.39;38.81
70902;BME280;58548;47.210;8.618;2023-04-28T09:09:27;94107.31;;;22.61;39.38
70902;BME280;58548;47.210;8.618;2023-04-28T09:11:59;94101.44;;;22.49;40.32
70902;BME280;58548;47.210;8.618;2023-04-28T09:14:32;94089.19;;;22.48;39.83
70902;BME280;58548;47.210;8.618;2023-04-28T09:16:59;94107.84;;;22.68;39.32
70902;BME280;58548;47.210;8.618;2023-04-28T09:19:36;94112.38;;;22.73;39.17
70902;BME280;58548;47.210;8.618;2023-04-28T09:22:03;94110.00;;;22.82;39.19
70902;BME280;58548;47.210;8.618;2023-04-28T09:24:35;94082.56;;;22.81;38.86
70902;BME280;58548;47.210;8.618;2023-04-28T09:27:08;94106.25;;;23.03;38.93
70902;BME280;58548;47.210;8.618;2023-04-28T09:29:37;93995.53;;;22.46;38.93
70902;BME280;58548;47.210;8.618;2023-04-28T09:32:18;94089.47;;;23.24;38.68
70902;BME280;58548;47.210;8.618;2023-04-28T09:34:49;94108.38;;;23.48;38.12
70902;BME280;58548;47.210;8.618;2023-04-28T09:37:17;94111.53;;;23.66;37.77
70902;BME280;58548;47.210;8.618;2023-04-28T09:39:50;94106.41;;;23.79;37.54
70902;BME280;58548;47.210;8.618;2023-04-28T09:45:09;94085.81;;;24.01;37.55
70902;BME280;58548;47.210;8.618;2023-04-28T09:47:43;94078.88;;;24.05;36.87
70902;BME280;58548;47.210;8.618;2023-04-28T09:50:12;94024.03;;;23.73;37.10
70902;BME280;58548;47.210;8.618;2023-04-28T09:52:54;94012.78;;;23.86;36.65
70902;BME280;58548;47.210;8.618;2023-04-28T09:55:23;94104.25;;;24.47;36.09
70902;BME280;58548;47.210;8.618;2023-04-28T09:57:55;94079.47;;;24.42;36.40
70902;BME280;58548;47.210;8.618;2023-04-28T10:00:25;94104.75;;;24.54;36.61
70902;BME280;58548;47.210;8.618;2023-04-28T10:02:51;94002.06;;;23.97;35.78
70902;BME280;58548;47.210;8.618;2023-04-28T10:05:20;94103.63;;;24.61;35.92
70902;BME280;58548;47.210;8.618;2023-04-28T10:07:47;94112.69;;;24.60;35.63
70902;BME280;58548;47.210;8.618;2023-04-28T10:10:13;94050.25;;;24.16;36.92
70902;BME280;58548;47.210;8.618;2023-04-28T10:12:40;94127.38;;;24.62;36.55
70902;BME280;58548;47.210;8.618;2023-04-28T10:15:12;94050.06;;;24.02;36.36
70902;BME280;58548;47.210;8.618;2023-04-28T10:17:38;94030.38;;;23.92;36.33
70902;BME280;58548;47.210;8.618;2023-04-28T10:20:04;94125.06;;;24.50;36.04
70902;BME280;58548;47.210;8.618;2023-04-28T10:25:19;94105.94;;;24.33;36.63
70902;BME280;58548;47.210;8.618;2023-04-28T10:27:49;94040.53;;;23.85;37.21
70902;BME280;58548;47.210;8.618;2023-04-28T10:30:22;94042.13;;;23.86;36.90
70902;BME280;58548;47.210;8.618;2023-04-28T10:43:08;94051.13;;;23.95;37.50
70902;BME280;58548;47.210;8.618;2023-04-28T10:51:20;94129.44;;;24.26;37.73
70902;BME280;58548;47.210;8.618;2023-04-28T10:56:21;94131.59;;;24.23;38.09
70902;BME280;58548;47.210;8.618;2023-04-28T10:58:57;94108.13;;;24.20;38.14
70902;BME280;58548;47.210;8.618;2023-04-28T11:01:30;94124.34;;;24.29;37.94
70902;BME280;58548;47.210;8.618;2023-04-28T11:11:31;94114.94;;;24.47;38.09
70902;BME280;58548;47.210;8.618;2023-04-28T11:21:51;94123.78;;;24.82;38.88
70902;BME280;58548;47.210;8.618;2023-04-28T11:24:21;94052.47;;;24.48;38.59
70902;BME280;58548;47.210;8.618;2023-04-28T11:26:47;94108.16;;;25.00;37.62
70902;BME280;58548;47.210;8.618;2023-04-28T11:29:13;94046.47;;;24.62;37.78
70902;BME280;58548;47.210;8.618;2023-04-28T11:31:40;94126.75;;;25.16;37.85
70902;BME280;58548;47.210;8.618;2023-04-28T11:34:20;94026.69;;;24.68;37.38
70902;BME280;58548;47.210;8.618;2023-04-28T11:36:46;94066.56;;;24.94;37.09
70902;BME280;58548;47.210;8.618;2023-04-28T11:39:12;94104.25;;;25.22;37.09
70902;BME280;58548;47.210;8.618;2023-04-28T11:41:43;94120.97;;;25.33;36.80
70902;BME280;58548;47.210;8.618;2023-04-28T11:44:14;94115.63;;;25.33;37.02
70902;BME280;58548;47.210;8.618;2023-04-28T11:47:03;94116.41;;;25.38;37.40
70902;BME280;58548;47.210;8.618;2023-04-28T11:49:43;94107.88;;;25.36;37.30
70902;BME280;58548;47.210;8.618;2023-04-28T11:52:10;94036.75;;;24.81;36.57
70902;BME280;58548;47.210;8.618;2023-04-28T11:54:39;94111.06;;;25.38;36.85
70902;BME280;58548;47.210;8.618;2023-04-28T11:57:19;94110.25;;;25.38;37.40
70902;BME280;58548;47.210;8.618;2023-04-28T11:59:46;94106.84;;;25.32;36.63
70902;BME280;58548;47.210;8.618;2023-04-28T12:02:14;94104.16;;;25.32;36.98
70902;BME280;58548;47.210;8.618;2023-04-28T12:04:42;94111.38;;;25.32;36.88
70902;BME280;58548;47.210;8.618;2023-04-28T12:09:48;94005.63;;;24.66;36.88
70902;BME280;58548;47.210;8.618;2023-04-28T12:12:33;94041.53;;;24.84;37.48
70902;BME280;58548;47.210;8.618;2023-04-28T12:15:06;94120.75;;;25.29;37.63
70902;BME280;58548;47.210;8.618;2023-04-28T12:17:37;94021.84;;;24.75;37.66
70902;BME280;58548;47.210;8.618;2023-04-28T12:22:59;94095.66;;;25.25;37.17
70902;BME280;58548;47.210;8.618;2023-04-28T12:25:27;94104.19;;;25.27;36.86
70902;BME280;58548;47.210;8.618;2023-04-28T12:28:02;94112.41;;;25.36;37.33
70902;BME280;58548;47.210;8.618;2023-04-28T12:30:32;94121.22;;;25.36;36.96
70902;BME280;58548;47.210;8.618;2023-04-28T12:32:59;94116.41;;;25.38;37.49
70902;BME280;58548;47.210;8.618;2023-04-28T12:35:26;94052.16;;;24.90;36.90
70902;BME280;58548;47.210;8.618;2023-04-28T12:37:56;94010.44;;;24.64;37.47
70902;BME280;58548;47.210;8.618;2023-04-28T12:40:26;94119.91;;;25.34;37.62
70902;BME280;58548;47.210;8.618;2023-04-28T12:42:55;94034.03;;;24.87;37.58
70902;BME280;58548;47.210;8.618;2023-04-28T12:45:21;94128.69;;;25.39;37.01
70902;BME280;58548;47.210;8.618;2023-04-28T12:47:47;94046.00;;;24.89;37.39
70902;BME280;58548;47.210;8.618;2023-04-28T12:50:15;94037.81;;;24.80;37.43
70902;BME280;58548;47.210;8.618;2023-04-28T12:52:41;94122.25;;;25.40;36.87
70902;BME280;58548;47.210;8.618;2023-04-28T12:55:09;94093.28;;;25.23;37.45
70902;BME280;58548;47.210;8.618;2023-04-28T12:57:37;94053.66;;;25.01;37.44
70902;BME280;58548;47.210;8.618;2023-04-28T13:00:04;94022.88;;;24.79;38.03
70902;BME280;58548;47.210;8.618;2023-04-28T13:02:30;94111.00;;;25.43;38.37
70902;BME280;58548;47.210;8.618;2023-04-28T13:04:56;94097.72;;;25.33;38.44
70902;BME280;58548;47.210;8.618;2023-04-28T13:07:22;94105.06;;;25.52;38.34
70902;BME280;58548;47.210;8.618;2023-04-28T13:09:48;94019.38;;;25.13;38.05
70902;BME280;58548;47.210;8.618;2023-04-28T13:12:14;94038.41;;;25.31;38.02
70902;BME280;58548;47.210;8.618;2023-04-28T13:14:40;94101.19;;;25.87;38.18
70902;BME280;58548;47.210;8.618;2023-04-28T13:17:11;93999.34;;;25.35;37.59
70902;BME280;58548;47.210;8.618;2023-04-28T13:19:37;94009.38;;;25.49;36.66
70902;BME280;58548;47.210;8.618;2023-04-28T13:22:06;94019.47;;;25.57;37.25
70902;BME280;58548;47.210;8.618;2023-04-28T13:24:36;94013.63;;;25.74;37.43
70902;BME280;58548;47.210;8.618;2023-04-28T13:27:02;94067.78;;;26.28;37.77
70902;BME280;58548;47.210;8.618;2023-04-28T13:29:36;93983.28;;;25.84;36.13
70902;BME280;58548;47.210;8.618;2023-04-28T13:32:02;94061.66;;;26.47;36.20
70902;BME280;58548;47.210;8.618;2023-04-28T13:34:29;94048.69;;;26.54;35.81
70902;BME280;58548;47.210;8.618;2023-04-28T13:36:56;94043.25;;;26.59;37.11
70902;BME280;58548;47.210;8.618;2023-04-28T13:39:24;94054.03;;;26.73;37.32
70902;BME280;58548;47.210;8.618;2023-04-28T13:41:50;93980.97;;;26.34;36.46
70902;BME280;58548;47.210;8.618;2023-04-28T13:44:18;93985.31;;;26.49;36.83
70902;BME280;58548;47.210;8.618;2023-04-28T13:46:44;93963.56;;;26.51;36.16
70902;BME280;58548;47.210;8.618;2023-04-28T13:49:10;93961.91;;;26.55;36.56